Time;durP1;ratioP1;P1;durP2;ratioP2;P2;SDS_P1;SDS_P2;PMS_P1;PMS_P2;Temp;Humidity;BMP_temperature;BMP_pressure;BME280_temperature;BME280_humidity;BME280_pressure;Samples;Min_cycle;Max_cycle;Signal;HPM_P1;HPM_P2
2022/11/14 00:02:18;;;;;;;9.97;5.43;;;7.00;99.90;;;;;;7392277;19;20138;-72
2022/11/14 00:04:47;;;;;;;6.23;5.00;;;6.90;99.90;;;;;;7390837;19;20871;-71
2022/11/14 00:07:14;;;;;;;7.20;5.33;;;7.10;99.90;;;;;;7391301;19;20754;-73
2022/11/14 00:09:41;;;;;;;7.20;5.03;;;7.20;99.90;;;;;;7390239;19;20552;-72
2022/11/14 00:12:11;;;;;;;8.07;5.40;;;6.80;99.90;;;;;;7391696;19;20146;-72
2022/11/14 00:14:37;;;;;;;7.23;5.70;;;6.40;99.90;;;;;;7386527;19;20134;-72
2022/11/14 00:17:04;;;;;;;7.27;5.30;;;6.30;99.90;;;;;;7389454;19;20138;-73
2022/11/14 00:19:30;;;;;;;6.40;5.00;;;6.60;99.90;;;;;;7388489;19;20145;-70
2022/11/14 00:21:56;;;;;;;8.07;5.87;;;7.10;99.90;;;;;;7388365;19;20143;-71
2022/11/14 00:24:22;;;;;;;8.63;6.10;;;7.50;99.90;;;;;;7385752;19;20576;-71
2022/11/14 00:26:47;;;;;;;8.77;6.50;;;7.60;99.90;;;;;;7387866;19;20173;-72
2022/11/14 00:29:14;;;;;;;10.17;6.33;;;7.50;99.90;;;;;;7388312;19;20904;-72
2022/11/14 00:31:40;;;;;;;8.80;6.20;;;7.50;99.90;;;;;;7388203;19;20150;-71
2022/11/14 00:34:07;;;;;;;7.60;5.80;;;7.30;99.90;;;;;;7391409;19;20182;-71
2022/11/14 00:36:33;;;;;;;7.90;5.77;;;6.80;99.90;;;;;;7388362;19;20136;-71
2022/11/14 00:38:58;;;;;;;8.07;5.70;;;6.60;99.90;;;;;;7390510;19;20142;-71
2022/11/14 00:41:25;;;;;;;7.60;5.50;;;6.80;99.90;;;;;;7389857;19;20535;-72
2022/11/14 00:43:50;;;;;;;8.47;6.00;;;6.90;99.90;;;;;;7386724;19;20157;-71
2022/11/14 00:46:16;;;;;;;7.20;5.50;;;7.20;99.90;;;;;;7389917;19;20138;-72
2022/11/14 00:48:42;;;;;;;7.43;5.60;;;7.30;99.90;;;;;;7386116;19;20146;-72
2022/11/14 00:51:08;;;;;;;7.30;5.20;;;7.40;99.90;;;;;;7388838;19;20146;-72
2022/11/14 00:53:35;;;;;;;7.60;5.50;;;7.20;99.90;;;;;;7387573;19;20126;-72
2022/11/14 00:56:01;;;;;;;10.13;5.83;;;7.10;99.90;;;;;;7390678;19;20134;-73
2022/11/14 00:58:26;;;;;;;9.00;6.37;;;7.10;99.90;;;;;;7385980;19;20230;-72
2022/11/14 01:00:52;;;;;;;8.43;6.03;;;7.20;99.90;;;;;;7387558;19;20691;-72
2022/11/14 01:03:18;;;;;;;7.83;5.77;;;6.40;99.90;;;;;;7388029;19;20134;-72
2022/11/14 01:05:47;;;;;;;7.10;5.37;;;6.00;99.90;;;;;;7388018;19;20158;-73
2022/11/14 01:08:15;;;;;;;7.77;5.57;;;5.70;99.90;;;;;;7388982;19;20142;-71
2022/11/14 01:10:42;;;;;;;7.43;5.63;;;5.90;99.90;;;;;;7388416;19;20167;-72
2022/11/14 01:13:08;;;;;;;8.13;5.50;;;5.90;99.90;;;;;;7388248;19;20164;-73
2022/11/14 01:15:41;;;;;;;9.10;5.53;;;6.20;99.90;;;;;;7389566;19;20169;-72
2022/11/14 01:18:10;;;;;;;8.60;6.40;;;6.50;99.90;;;;;;7391449;19;20230;-70
2022/11/14 01:20:40;;;;;;;10.13;6.63;;;6.80;99.90;;;;;;7389583;19;20131;-71
2022/11/14 01:23:07;;;;;;;9.00;6.10;;;6.90;99.90;;;;;;7388338;19;20166;-71
2022/11/14 01:25:35;;;;;;;9.33;6.77;;;6.90;99.90;;;;;;7387041;19;20757;-72
2022/11/14 01:28:01;;;;;;;10.13;6.87;;;6.90;99.90;;;;;;7386608;19;20131;-73
2022/11/14 01:30:27;;;;;;;9.10;6.23;;;6.70;99.90;;;;;;7385577;19;20139;-71
2022/11/14 01:32:52;;;;;;;9.30;5.73;;;6.70;99.90;;;;;;7387439;19;20217;-72
2022/11/14 01:35:18;;;;;;;7.53;5.80;;;6.60;99.90;;;;;;7388991;19;20227;-72
2022/11/14 01:37:44;;;;;;;7.77;5.40;;;6.30;99.90;;;;;;7387049;19;20233;-74
2022/11/14 01:40:10;;;;;;;6.70;5.13;;;6.40;99.90;;;;;;7382819;19;22387;-72
2022/11/14 01:42:36;;;;;;;8.27;5.80;;;6.80;99.90;;;;;;7389563;19;20126;-72
2022/11/14 01:45:41;;;;;;;8.23;5.63;;;7.00;99.90;;;;;;7386790;19;20252;-72
2022/11/14 01:48:22;;;;;;;7.30;5.37;;;6.80;99.90;;;;;;7385316;19;20138;-72
2022/11/14 01:50:53;;;;;;;5.90;4.60;;;6.60;99.90;;;;;;7389214;19;20159;-72
2022/11/14 01:53:19;;;;;;;6.83;4.93;;;6.40;99.90;;;;;;7387346;19;20149;-72
2022/11/14 01:55:45;;;;;;;7.87;5.70;;;6.20;99.90;;;;;;7388153;19;20210;-71
2022/11/14 01:58:11;;;;;;;7.70;5.20;;;6.10;99.90;;;;;;7386691;19;20158;-73
2022/11/14 02:00:37;;;;;;;6.90;5.30;;;6.10;99.90;;;;;;7387507;19;20130;-72
2022/11/14 02:03:03;;;;;;;7.10;5.53;;;6.20;99.90;;;;;;7387486;19;20126;-73
2022/11/14 02:05:29;;;;;;;6.83;5.40;;;6.30;99.90;;;;;;7386767;19;20178;-71
2022/11/14 02:07:56;;;;;;;6.73;4.93;;;6.20;99.90;;;;;;7384726;19;20149;-71
2022/11/14 02:10:22;;;;;;;6.03;4.53;;;6.40;99.90;;;;;;7388252;19;20142;-72
2022/11/14 02:12:49;;;;;;;6.97;5.13;;;6.60;99.90;;;;;;7387318;19;20777;-73
2022/11/14 02:15:15;;;;;;;8.93;6.33;;;6.70;99.90;;;;;;7387317;19;20170;-72
2022/11/14 02:17:42;;;;;;;9.57;5.07;;;6.80;99.90;;;;;;7386525;19;20139;-72
2022/11/14 02:20:11;;;;;;;8.03;5.03;;;7.00;99.90;;;;;;7384069;19;20611;-72
2022/11/14 02:22:39;;;;;;;5.50;4.50;;;7.00;99.90;;;;;;7389069;19;20146;-72
2022/11/14 02:25:06;;;;;;;8.27;5.23;;;6.70;99.90;;;;;;7386012;19;20249;-73
2022/11/14 02:27:33;;;;;;;9.00;5.93;;;6.60;99.90;;;;;;7383981;19;20150;-73
2022/11/14 02:30:12;;;;;;;7.57;5.40;;;6.20;99.90;;;;;;7387375;19;20147;-72
2022/11/14 02:32:38;;;;;;;7.90;5.97;;;5.90;99.90;;;;;;7387139;19;20139;-71
2022/11/14 02:35:04;;;;;;;7.60;5.40;;;6.30;99.90;;;;;;7384685;19;20174;-70
2022/11/14 02:37:30;;;;;;;7.10;5.07;;;6.50;99.90;;;;;;7385910;19;20147;-72
2022/11/14 02:39:55;;;;;;;7.57;5.73;;;6.90;99.90;;;;;;7385179;19;20711;-71
2022/11/14 02:42:21;;;;;;;6.30;5.13;;;6.90;99.90;;;;;;7384787;19;20166;-72
2022/11/14 02:44:47;;;;;;;8.27;5.53;;;7.00;99.90;;;;;;7383997;19;20155;-73
2022/11/14 02:47:12;;;;;;;6.93;5.53;;;7.00;99.90;;;;;;7386504;19;20150;-72
2022/11/14 02:49:38;;;;;;;7.43;5.83;;;7.00;99.90;;;;;;7380867;19;20924;-71
2022/11/14 02:52:04;;;;;;;6.83;5.00;;;7.10;99.90;;;;;;7390833;19;20127;-71
2022/11/14 02:54:30;;;;;;;8.03;5.50;;;7.10;99.90;;;;;;7389691;19;20185;-71
2022/11/14 02:56:55;;;;;;;6.60;4.80;;;7.10;99.90;;;;;;7393237;19;20189;-71
2022/11/14 02:59:21;;;;;;;7.50;5.17;;;7.10;99.90;;;;;;7392594;19;20146;-72
2022/11/14 03:01:47;;;;;;;7.03;5.13;;;7.20;99.90;;;;;;7393115;19;20604;-71
2022/11/14 03:04:12;;;;;;;6.60;4.80;;;7.10;99.90;;;;;;7389693;19;20142;-71
2022/11/14 03:06:38;;;;;;;6.70;5.20;;;7.20;99.90;;;;;;7390402;19;20169;-72
2022/11/14 03:09:04;;;;;;;7.40;5.20;;;7.20;99.90;;;;;;7393739;19;20131;-72
2022/11/14 03:11:30;;;;;;;7.37;5.37;;;7.20;99.90;;;;;;7390967;19;20155;-71
2022/11/14 03:13:55;;;;;;;6.17;4.77;;;7.20;99.90;;;;;;7391934;19;20151;-72
2022/11/14 03:16:21;;;;;;;6.10;4.57;;;7.00;99.90;;;;;;7393304;19;20159;-70
2022/11/14 03:18:47;;;;;;;7.80;5.43;;;7.00;99.90;;;;;;7389186;19;20184;-72
2022/11/14 03:21:19;;;;;;;7.20;5.30;;;7.00;99.90;;;;;;7391717;19;20163;-71
2022/11/14 03:23:45;;;;;;;6.73;4.37;;;7.00;99.90;;;;;;7389410;19;20150;-71
2022/11/14 03:26:12;;;;;;;6.30;4.97;;;7.10;99.90;;;;;;7384842;19;20633;-72
2022/11/14 03:28:38;;;;;;;6.37;5.10;;;7.00;99.90;;;;;;7389693;19;20150;-71
2022/11/14 03:31:05;;;;;;;6.60;4.90;;;7.00;99.90;;;;;;7391567;19;20171;-73
2022/11/14 03:33:33;;;;;;;5.97;4.60;;;7.00;99.90;;;;;;7390980;19;20157;-71
2022/11/14 03:35:59;;;;;;;6.07;4.80;;;7.00;99.90;;;;;;7390533;19;20155;-72
2022/11/14 03:38:24;;;;;;;7.03;4.80;;;7.00;99.90;;;;;;7392093;19;20159;-71
2022/11/14 03:40:50;;;;;;;7.27;5.03;;;7.00;99.90;;;;;;7390738;19;20190;-73
2022/11/14 03:43:17;;;;;;;7.37;5.33;;;7.00;99.90;;;;;;7390578;19;20158;-72
2022/11/14 03:45:43;;;;;;;7.00;5.13;;;7.10;99.90;;;;;;7392799;19;20204;-72
2022/11/14 03:48:09;;;;;;;6.97;5.30;;;7.10;99.90;;;;;;7390838;19;20154;-78
2022/11/14 03:50:35;;;;;;;7.50;5.07;;;7.00;99.90;;;;;;7391491;19;20139;-77
2022/11/14 03:53:00;;;;;;;7.03;4.87;;;7.10;99.90;;;;;;7393268;19;20603;-79
2022/11/14 03:55:26;;;;;;;6.40;5.03;;;7.10;99.90;;;;;;7390883;19;20135;-77
2022/11/14 03:57:52;;;;;;;7.57;5.03;;;7.00;99.90;;;;;;7388933;19;20147;-76
2022/11/14 04:00:18;;;;;;;7.33;5.40;;;6.90;99.90;;;;;;7385643;19;20131;-78
2022/11/14 04:02:44;;;;;;;7.43;5.50;;;6.90;99.90;;;;;;7389461;19;20783;-77
2022/11/14 04:05:10;;;;;;;6.33;5.23;;;7.00;99.90;;;;;;7390439;19;20158;-78
2022/11/14 04:07:35;;;;;;;7.40;4.87;;;6.90;99.90;;;;;;7390041;19;21089;-77
2022/11/14 04:10:01;;;;;;;7.47;5.13;;;7.00;99.90;;;;;;7392165;19;20139;-77
2022/11/14 04:12:27;;;;;;;6.70;5.20;;;6.60;99.90;;;;;;7390003;19;20147;-75
2022/11/14 04:14:52;;;;;;;7.00;5.07;;;5.60;99.90;;;;;;7388646;19;20135;-80
2022/11/14 04:17:18;;;;;;;6.73;5.53;;;6.00;99.90;;;;;;7389127;19;20130;-79
2022/11/14 04:19:44;;;;;;;6.57;5.27;;;6.40;99.90;;;;;;7389275;19;20505;-79
2022/11/14 04:22:10;;;;;;;8.00;5.70;;;6.60;99.90;;;;;;7388751;19;20154;-78
2022/11/14 04:24:35;;;;;;;7.40;5.87;;;6.40;99.90;;;;;;7381613;19;20158;-76
2022/11/14 04:27:01;;;;;;;6.83;5.40;;;6.50;99.90;;;;;;7391953;19;20219;-78
2022/11/14 04:29:27;;;;;;;9.10;6.07;;;6.60;99.90;;;;;;7389644;19;20266;-78
2022/11/14 04:31:52;;;;;;;8.17;5.87;;;6.70;99.90;;;;;;7389398;19;20139;-78
2022/11/14 04:34:18;;;;;;;8.93;5.97;;;6.80;99.90;;;;;;7388617;19;20139;-78
2022/11/14 04:36:44;;;;;;;8.43;6.00;;;6.80;99.90;;;;;;7386734;19;20138;-77
2022/11/14 04:39:09;;;;;;;8.53;6.17;;;6.10;99.90;;;;;;7387768;19;20265;-76
2022/11/14 04:41:35;;;;;;;8.87;6.57;;;6.20;99.90;;;;;;7387620;19;20139;-79
2022/11/14 04:44:01;;;;;;;8.73;5.87;;;6.50;99.90;;;;;;7387938;19;20226;-78
2022/11/14 04:46:27;;;;;;;11.07;6.20;;;6.00;99.90;;;;;;7388415;19;20134;-78
2022/11/14 04:48:52;;;;;;;8.33;6.17;;;6.20;99.90;;;;;;7384912;19;20503;-78
2022/11/14 04:51:18;;;;;;;6.90;5.43;;;5.80;99.90;;;;;;7390752;19;20169;-76
2022/11/14 04:53:44;;;;;;;7.50;5.67;;;5.70;99.90;;;;;;7389177;19;20169;-79
2022/11/14 04:56:09;;;;;;;7.97;5.73;;;5.90;99.90;;;;;;7389924;19;20163;-79
2022/11/14 04:58:35;;;;;;;9.20;5.33;;;6.30;99.90;;;;;;7387069;19;20632;-77
2022/11/14 05:01:12;;;;;;;7.37;5.50;;;6.50;99.90;;;;;;7390211;19;20549;-79
2022/11/14 05:03:37;;;;;;;8.77;5.80;;;5.90;99.90;;;;;;7388087;19;20134;-77
2022/11/14 05:06:03;;;;;;;10.87;6.87;;;6.30;99.90;;;;;;7387339;19;20758;-77
2022/11/14 05:08:29;;;;;;;9.13;6.33;;;6.50;99.90;;;;;;7390404;19;20138;-78
2022/11/14 05:10:55;;;;;;;10.73;7.30;;;6.70;99.90;;;;;;7388930;19;20168;-77
2022/11/14 05:13:21;;;;;;;12.17;7.87;;;6.90;99.90;;;;;;7385822;19;20812;-77
2022/11/14 05:15:46;;;;;;;10.63;7.87;;;6.80;99.90;;;;;;7387776;19;20915;-77
2022/11/14 05:18:12;;;;;;;10.30;6.83;;;6.60;99.90;;;;;;7387528;19;20151;-77
2022/11/14 05:20:38;;;;;;;7.53;5.87;;;6.50;99.90;;;;;;7388608;19;20676;-78
2022/11/14 05:23:03;;;;;;;7.83;5.83;;;5.50;99.90;;;;;;7385875;19;20146;-77
2022/11/14 05:25:29;;;;;;;8.67;6.03;;;5.30;99.90;;;;;;7386797;19;20150;-77
2022/11/14 05:27:56;;;;;;;9.37;6.10;;;5.60;99.90;;;;;;7389968;19;20503;-77
2022/11/14 05:30:23;;;;;;;7.47;5.80;;;5.70;99.90;;;;;;7388112;19;20138;-78
2022/11/14 05:32:51;;;;;;;8.23;5.47;;;5.80;99.90;;;;;;7391625;19;20145;-80
2022/11/14 05:35:16;;;;;;;8.17;5.97;;;6.20;99.90;;;;;;7388518;19;20154;-77
2022/11/14 05:37:42;;;;;;;8.07;5.73;;;6.10;99.90;;;;;;7385822;19;20151;-78
2022/11/14 05:40:08;;;;;;;10.00;5.57;;;6.30;99.90;;;;;;7390221;19;20154;-78
2022/11/14 05:42:34;;;;;;;6.37;5.20;;;6.00;99.90;;;;;;7395249;19;20142;-78
2022/11/14 05:45:00;;;;;;;6.83;5.30;;;6.00;99.90;;;;;;7394315;19;20470;-78
2022/11/14 05:47:25;;;;;;;8.20;5.63;;;6.20;99.90;;;;;;7390962;19;20248;-77
2022/11/14 05:49:51;;;;;;;7.83;5.37;;;6.30;99.90;;;;;;7393575;19;20576;-77
2022/11/14 05:52:17;;;;;;;6.00;5.00;;;6.10;99.90;;;;;;7389470;19;20161;-78
2022/11/14 05:54:42;;;;;;;7.80;5.40;;;6.30;99.90;;;;;;7388733;19;20336;-80
2022/11/14 05:57:08;;;;;;;7.33;5.23;;;6.30;99.90;;;;;;7386855;19;20150;-78
2022/11/14 05:59:34;;;;;;;8.07;6.07;;;6.30;99.90;;;;;;7388473;19;20233;-77
2022/11/14 06:02:00;;;;;;;8.63;6.20;;;6.50;99.90;;;;;;7383051;19;20505;-77
2022/11/14 06:04:26;;;;;;;8.00;5.63;;;6.80;99.90;;;;;;7385654;19;20138;-77
2022/11/14 06:06:51;;;;;;;7.27;5.33;;;6.60;99.90;;;;;;7385229;19;20145;-77
2022/11/14 06:09:17;;;;;;;8.03;5.77;;;6.60;99.90;;;;;;7387841;19;20143;-79
2022/11/14 06:11:43;;;;;;;6.83;5.13;;;6.80;99.90;;;;;;7387294;19;20138;-77
2022/11/14 06:14:09;;;;;;;7.53;5.60;;;6.80;99.90;;;;;;7384286;19;20255;-78
2022/11/14 06:16:34;;;;;;;9.87;6.07;;;6.90;99.90;;;;;;7386266;19;20142;-78
2022/11/14 06:19:00;;;;;;;8.23;5.43;;;7.00;99.90;;;;;;7385897;19;20177;-77
2022/11/14 06:21:26;;;;;;;7.57;4.97;;;7.00;99.90;;;;;;7386965;19;20137;-77
2022/11/14 06:23:52;;;;;;;7.47;5.23;;;6.80;99.90;;;;;;7383804;19;20185;-78
2022/11/14 06:26:29;;;;;;;6.87;5.07;;;6.50;99.90;;;;;;7389971;19;20490;-79
2022/11/14 06:28:55;;;;;;;5.47;4.17;;;6.80;99.90;;;;;;7390382;19;20165;-77
2022/11/14 06:31:23;;;;;;;6.87;4.77;;;6.80;99.90;;;;;;7392538;19;20150;-79
2022/11/14 06:33:49;;;;;;;6.77;4.90;;;7.00;99.90;;;;;;7391170;19;20142;-77
2022/11/14 06:36:16;;;;;;;9.07;6.17;;;7.10;99.90;;;;;;7394692;19;20145;-76
2022/11/14 06:38:42;;;;;;;7.47;5.07;;;7.20;99.90;;;;;;7390912;19;20142;-80
2022/11/14 06:41:10;;;;;;;7.33;5.40;;;6.90;99.90;;;;;;7393407;19;20173;-75
2022/11/14 06:43:42;;;;;;;6.73;4.83;;;6.80;99.90;;;;;;7392596;19;20504;-81
2022/11/14 06:46:10;;;;;;;8.27;5.93;;;6.80;99.90;;;;;;7394181;19;20239;-79
2022/11/14 06:48:39;;;;;;;7.37;5.23;;;7.00;99.90;;;;;;7391726;19;20173;-78
2022/11/14 06:51:06;;;;;;;7.00;5.37;;;7.20;99.90;;;;;;7392298;19;20142;-78
2022/11/14 06:53:35;;;;;;;10.20;6.00;;;7.30;99.90;;;;;;7391369;19;20176;-80
2022/11/14 06:56:10;;;;;;;12.20;5.27;;;7.30;99.90;;;;;;7393500;19;20150;-79
2022/11/14 06:58:38;;;;;;;7.97;5.63;;;7.40;99.90;;;;;;7382612;19;20217;-81
2022/11/14 07:01:06;;;;;;;8.90;5.53;;;7.50;99.90;;;;;;7392365;19;20150;-79
2022/11/14 07:03:32;;;;;;;8.77;5.90;;;7.70;99.90;;;;;;7391920;19;20135;-76
2022/11/14 07:05:59;;;;;;;6.67;5.13;;;7.70;99.90;;;;;;7393712;19;20135;-78
2022/11/14 07:08:25;;;;;;;8.95;6.82;;;7.80;99.90;;;;;;7392645;19;20398;-79
2022/11/14 07:10:51;;;;;;;6.47;5.17;;;7.80;99.90;;;;;;7392161;19;20148;-80
2022/11/14 07:13:16;;;;;;;9.83;5.77;;;7.50;99.90;;;;;;7393058;19;20162;-80
2022/11/14 07:15:50;;;;;;;7.80;5.70;;;7.60;99.90;;;;;;7390882;19;20170;-79
2022/11/14 07:18:15;;;;;;;8.17;5.53;;;7.80;99.90;;;;;;7391912;19;20599;-78
2022/11/14 07:20:41;;;;;;;8.87;5.60;;;7.90;99.90;;;;;;7392689;19;20138;-79
2022/11/14 07:23:07;;;;;;;10.33;5.83;;;7.90;99.90;;;;;;7390584;19;20143;-80
2022/11/14 07:25:33;;;;;;;9.63;5.60;;;7.80;99.90;;;;;;7391652;19;20147;-79
2022/11/14 07:27:59;;;;;;;7.37;5.10;;;7.80;99.90;;;;;;7391821;19;20131;-82
2022/11/14 07:30:25;;;;;;;8.60;4.80;;;7.70;99.90;;;;;;7391301;19;20135;-80
2022/11/14 07:32:57;;;;;;;7.67;4.63;;;7.70;99.90;;;;;;7392442;19;20141;-79
2022/11/14 07:35:23;;;;;;;7.70;5.30;;;7.30;99.90;;;;;;7390097;19;20543;-80
2022/11/14 07:37:50;;;;;;;7.37;5.63;;;7.40;99.90;;;;;;7388536;19;20146;-83
2022/11/14 07:40:16;;;;;;;9.47;5.80;;;7.70;99.90;;;;;;7393362;19;20159;-80
2022/11/14 07:42:42;;;;;;;8.13;5.73;;;7.90;99.90;;;;;;7388769;19;20123;-82
2022/11/14 07:45:08;;;;;;;8.93;6.00;;;7.80;99.90;;;;;;7392553;19;20150;-81
2022/11/14 07:47:34;;;;;;;8.70;6.13;;;7.80;99.90;;;;;;7391284;19;20157;-80
2022/11/14 07:50:00;;;;;;;8.03;5.63;;;7.80;99.90;;;;;;7391571;19;20131;-79
2022/11/14 07:52:26;;;;;;;8.03;5.93;;;7.80;99.90;;;;;;7390956;19;20521;-82
2022/11/14 07:54:51;;;;;;;10.77;6.57;;;7.80;99.90;;;;;;7395774;19;20130;-80
2022/11/14 07:57:17;;;;;;;8.67;6.50;;;7.70;99.90;;;;;;7391690;19;20187;-79
2022/11/14 07:59:45;;;;;;;13.83;7.20;;;7.90;99.90;;;;;;7394611;19;20131;-79
2022/11/14 08:02:16;;;;;;;10.83;5.97;;;7.90;99.90;;;;;;7394359;19;20171;-80
2022/11/14 08:04:44;;;;;;;9.97;5.63;;;8.00;99.90;;;;;;7395766;19;20142;-76
2022/11/14 08:07:11;;;;;;;9.90;5.83;;;7.90;99.90;;;;;;7396861;19;20150;-81
2022/11/14 08:09:37;;;;;;;9.63;6.17;;;7.80;99.90;;;;;;7397709;19;20143;-81
2022/11/14 08:12:03;;;;;;;8.70;6.03;;;7.90;99.90;;;;;;7395472;19;20141;-81
2022/11/14 08:14:28;;;;;;;8.37;6.17;;;8.00;99.90;;;;;;7402861;19;20148;-83
2022/11/14 08:16:54;;;;;;;9.90;5.90;;;8.00;99.90;;;;;;7395367;19;20134;-80
2022/11/14 08:19:20;;;;;;;8.23;6.37;;;8.00;99.90;;;;;;7400763;19;20581;-79
2022/11/14 08:21:46;;;;;;;10.00;5.57;;;8.00;99.90;;;;;;7403351;19;20236;-79
2022/11/14 08:24:11;;;;;;;7.67;5.50;;;8.10;99.90;;;;;;7398254;19;20138;-82
2022/11/14 08:26:38;;;;;;;9.00;5.60;;;8.10;99.90;;;;;;7401378;19;20130;-83
2022/11/14 08:29:04;;;;;;;7.03;5.73;;;8.10;99.90;;;;;;7402478;19;20145;-83
2022/11/14 08:31:30;;;;;;;8.17;5.63;;;8.20;99.90;;;;;;7396122;19;20147;-74
2022/11/14 08:33:55;;;;;;;10.77;6.20;;;8.20;99.90;;;;;;7391159;19;20142;-82
2022/11/14 08:36:21;;;;;;;7.53;5.50;;;8.20;99.90;;;;;;7391691;19;20837;-82
2022/11/14 08:38:47;;;;;;;8.70;5.77;;;8.10;99.90;;;;;;7391433;19;20164;-84
2022/11/14 08:41:13;;;;;;;11.63;6.53;;;8.10;99.90;;;;;;7390681;19;20174;-83
2022/11/14 08:43:39;;;;;;;9.07;5.77;;;8.10;99.90;;;;;;7389628;19;20135;-81
2022/11/14 08:46:05;;;;;;;9.03;6.00;;;8.10;99.90;;;;;;7390746;19;20153;-82
2022/11/14 08:48:32;;;;;;;7.73;5.23;;;8.00;99.90;;;;;;7398145;19;20176;-82
2022/11/14 08:51:03;;;;;;;8.57;5.00;;;8.00;99.90;;;;;;7387254;19;20134;-83
2022/11/14 08:53:29;;;;;;;8.00;4.87;;;8.10;99.90;;;;;;7389620;19;20157;-80
2022/11/14 08:55:55;;;;;;;8.97;4.63;;;8.20;99.90;;;;;;7390908;19;20727;-80
2022/11/14 08:58:21;;;;;;;3.67;2.50;;;8.20;99.90;;;;;;7388192;19;20157;-84
2022/11/14 09:00:46;;;;;;;5.57;2.50;;;8.40;99.90;;;;;;7387108;19;20838;-81
2022/11/14 09:03:13;;;;;;;1.80;1.60;;;8.60;99.90;;;;;;7389809;19;20138;-83
2022/11/14 09:05:39;;;;;;;3.93;2.00;;;8.80;99.90;;;;;;7389645;19;20155;-78
2022/11/14 09:08:06;;;;;;;3.40;2.03;;;9.00;99.90;;;;;;7388489;19;20142;-79
2022/11/14 09:10:33;;;;;;;3.87;1.60;;;9.10;99.90;;;;;;7388387;19;20678;-78
2022/11/14 09:13:01;;;;;;;3.87;1.77;;;9.20;99.90;;;;;;7397687;19;20617;-78
2022/11/14 09:15:27;;;;;;;4.65;2.17;;;9.30;99.90;;;;;;7389911;19;21173;-80
2022/11/14 09:17:54;;;;;;;3.43;2.10;;;9.40;99.90;;;;;;7389673;19;20137;-80
2022/11/14 09:20:25;;;;;;;2.67;1.93;;;9.20;99.90;;;;;;7389816;19;20309;-79
2022/11/14 09:22:52;;;;;;;7.57;5.30;;;9.40;99.90;;;;;;7389879;19;20210;-78
2022/11/14 09:25:20;;;;;;;4.57;2.93;;;9.50;99.90;;;;;;7389639;19;20137;-79
2022/11/14 09:27:46;;;;;;;3.80;1.60;;;9.50;99.90;;;;;;7390099;19;20155;-78
2022/11/14 09:30:13;;;;;;;2.70;1.60;;;9.50;99.90;;;;;;7390952;19;20130;-79
2022/11/14 09:32:39;;;;;;;1.70;1.40;;;9.60;99.90;;;;;;7389197;19;20146;-78
2022/11/14 09:35:05;;;;;;;1.97;1.50;;;9.70;99.90;;;;;;7387801;19;20139;-82
2022/11/14 09:37:31;;;;;;;2.50;1.90;;;9.80;99.90;;;;;;7390334;19;20169;-82
2022/11/14 09:39:56;;;;;;;2.03;1.40;;;9.80;99.90;;;;;;7389067;19;20151;-83
2022/11/14 09:42:43;;;;;;;2.50;1.20;;;9.90;99.90;;;;;;7386686;19;20146;-83
2022/11/14 09:45:14;;;;;;;2.13;1.30;;;9.90;99.90;;;;;;7395138;19;20372;-83
2022/11/14 09:47:43;;;;;;;1.30;1.20;;;9.90;99.90;;;;;;7400575;19;20154;-84
2022/11/14 09:50:16;;;;;;;2.97;1.67;;;9.90;99.90;;;;;;7402884;19;20140;-84
2022/11/14 09:52:48;;;;;;;1.83;1.67;;;9.90;99.90;;;;;;7389946;19;20135;-80
2022/11/14 09:55:18;;;;;;;2.50;1.43;;;10.00;99.90;;;;;;7389362;19;20892;-85
2022/11/14 09:57:45;;;;;;;4.03;1.57;;;10.00;99.90;;;;;;7384241;19;20206;-84
2022/11/14 10:00:22;;;;;;;2.50;1.50;;;10.00;99.90;;;;;;7392064;19;20167;-81
2022/11/14 10:03:03;;;;;;;2.67;1.80;;;10.00;99.90;;;;;;7388777;19;20142;-81
2022/11/14 10:06:01;;;;;;;3.63;2.13;;;10.10;99.90;;;;;;7391248;19;20142;-82
2022/11/14 10:08:43;;;;;;;1.93;1.60;;;10.10;99.90;;;;;;7390956;19;20201;-82
2022/11/14 10:11:12;;;;;;;3.00;2.00;;;10.30;99.90;;;;;;7390445;19;20182;-81
2022/11/14 10:13:59;;;;;;;5.60;3.47;;;10.30;99.90;;;;;;7396251;19;20507;-80
2022/11/14 10:17:03;;;;;;;6.37;5.20;;;10.40;99.90;;;;;;7397628;19;20614;-84
2022/11/14 10:19:54;;;;;;;9.53;6.20;;;10.50;99.90;;;;;;7402335;19;20150;-80
2022/11/14 10:22:39;;;;;;;11.97;6.30;;;10.40;99.90;;;;;;7402092;19;20150;-79
2022/11/14 10:25:30;;;;;;;12.30;6.87;;;10.10;99.90;;;;;;7393656;19;20150;-79
2022/11/14 10:28:20;;;;;;;11.57;6.60;;;10.10;99.90;;;;;;7394374;19;20147;-79
2022/11/14 10:31:46;;;;;;;10.53;6.67;;;10.10;99.90;;;;;;7393941;19;20139;-80
2022/11/14 10:34:15;;;;;;;9.63;6.43;;;10.00;99.90;;;;;;7384168;19;20585;-79
2022/11/14 10:37:01;;;;;;;8.77;6.67;;;10.00;99.90;;;;;;7386065;19;20151;-79
2022/11/14 10:39:31;;;;;;;8.43;6.07;;;9.80;99.90;;;;;;7384594;19;21108;-80
2022/11/14 10:42:02;;;;;;;12.07;6.80;;;9.80;99.90;;;;;;7388300;19;20600;-85
2022/11/14 10:44:49;;;;;;;9.23;5.97;;;9.90;99.90;;;;;;7385356;19;20139;-81
2022/11/14 10:47:18;;;;;;;10.80;6.57;;;10.00;99.90;;;;;;7386595;19;20511;-80
2022/11/14 10:49:45;;;;;;;8.07;5.97;;;10.00;99.90;;;;;;7386385;19;20226;-81
2022/11/14 10:52:15;;;;;;;8.67;5.17;;;10.00;99.90;;;;;;7388612;19;20234;-78
2022/11/14 10:54:50;;;;;;;7.53;5.53;;;10.10;99.90;;;;;;7387270;19;20138;-80
2022/11/14 10:57:21;;;;;;;7.77;5.87;;;10.20;99.90;;;;;;7392731;19;20229;-81
2022/11/14 10:59:47;;;;;;;8.40;5.47;;;10.20;99.90;;;;;;7387525;19;20142;-82
2022/11/14 11:02:16;;;;;;;11.27;5.60;;;10.40;99.90;;;;;;7382145;19;20139;-80
2022/11/14 11:04:43;;;;;;;7.90;5.63;;;10.50;99.90;;;;;;7393570;19;20153;-81
2022/11/14 11:11:28;;;;;;;7.73;5.67;;;10.60;99.90;;;;;;7384528;19;20170;-79
2022/11/14 11:12:50;;;;;;;11.17;5.93;;;10.70;99.90;;;;;;7386059;19;20142;-81
2022/11/14 11:15:23;;;;;;;8.40;4.90;;;10.80;99.90;;;;;;7395294;19;20154;-80
2022/11/14 11:18:03;;;;;;;6.70;4.90;;;10.80;99.90;;;;;;7401157;19;20145;-81
2022/11/14 11:20:40;;;;;;;8.50;5.70;;;10.80;99.90;;;;;;7394557;19;20130;-81
2022/11/14 11:23:26;;;;;;;7.37;5.30;;;10.90;99.90;;;;;;7393897;19;20484;-79
2022/11/14 11:26:06;;;;;;;5.87;3.77;;;10.90;99.90;;;;;;7398147;19;20154;-82
2022/11/14 11:28:36;;;;;;;3.90;2.70;;;11.00;99.90;;;;;;7389589;19;20142;-82
2022/11/14 11:31:05;;;;;;;4.03;2.33;;;11.00;99.90;;;;;;7391184;19;20146;-82
2022/11/14 11:33:35;;;;;;;2.93;2.37;;;11.10;99.90;;;;;;7392159;19;20157;-80
2022/11/14 11:36:12;;;;;;;5.10;2.97;;;11.10;99.90;;;;;;7390156;19;20139;-80
2022/11/14 11:38:38;;;;;;;5.70;3.97;;;11.10;99.90;;;;;;7393893;19;20210;-83
2022/11/14 11:41:20;;;;;;;14.30;6.27;;;11.10;99.90;;;;;;7394020;19;20135;-79
2022/11/14 11:43:58;;;;;;;19.70;10.90;;;11.20;99.90;;;;;;7396476;19;20147;-81
2022/11/14 11:46:37;;;;;;;3.25;2.45;;;11.10;99.90;;;;;;7390532;19;20130;-83
2022/11/14 11:49:16;;;;;;;3.03;1.87;;;11.20;99.90;;;;;;7399168;19;20142;-83
2022/11/14 11:51:45;;;;;;;2.73;1.50;;;11.20;99.90;;;;;;7385052;19;20148;-82
2022/11/14 11:54:25;;;;;;;3.80;2.40;;;11.20;99.90;;;;;;7388166;19;20162;-82
2022/11/14 11:56:57;;;;;;;8.10;5.57;;;11.20;99.90;;;;;;7401830;19;20162;-82
2022/11/14 11:59:35;;;;;;;3.35;2.05;;;11.20;99.90;;;;;;7390824;19;20963;-82
2022/11/14 12:02:19;;;;;;;1.50;1.40;;;11.30;99.90;;;;;;7391593;19;20142;-82
2022/11/14 12:04:45;;;;;;;1.10;1.00;;;11.30;99.90;;;;;;7393968;19;20136;-83
2022/11/14 12:07:19;;;;;;;1.57;1.20;;;11.30;99.90;;;;;;7400140;19;20200;-79
2022/11/14 12:09:45;;;;;;;4.50;3.20;;;11.30;99.90;;;;;;7397167;19;20143;-82
2022/11/14 12:12:35;;;;;;;2.40;1.57;;;11.30;99.90;;;;;;7395392;19;20509;-82
2022/11/14 12:15:10;;;;;;;1.67;1.40;;;11.30;99.90;;;;;;7393703;19;20139;-80
2022/11/14 12:18:02;;;;;;;2.70;1.90;;;11.30;99.90;;;;;;7391411;19;20261;-81
2022/11/14 12:20:34;;;;;;;11.93;9.23;;;11.30;99.90;;;;;;7394300;19;20612;-77
2022/11/14 12:23:27;;;;;;;1.95;1.45;;;11.30;99.90;;;;;;7393735;19;20620;-79
2022/11/14 12:26:45;;;;;;;4.37;3.10;;;11.40;99.90;;;;;;7399659;19;20138;-81
2022/11/14 12:29:13;;;;;;;2.57;1.40;;;11.50;99.90;;;;;;7395008;19;20130;-79
2022/11/14 12:31:40;;;;;;;2.53;1.83;;;11.60;99.90;;;;;;7390622;19;20139;-79
2022/11/14 12:34:28;;;;;;;2.70;1.70;;;11.60;99.90;;;;;;7388864;19;20157;-80
2022/11/14 12:36:55;;;;;;;1.60;1.13;;;11.70;99.90;;;;;;7393215;19;20552;-84
2022/11/14 12:39:27;;;;;;;1.70;1.60;;;11.90;99.90;;;;;;7391260;19;20130;-80
2022/11/14 12:42:02;;;;;;;1.60;1.23;;;12.10;99.90;;;;;;7393101;19;20134;-82
2022/11/14 12:44:27;;;;;;;4.00;1.53;;;12.30;99.90;;;;;;7390870;19;20584;-81
2022/11/14 12:47:05;;;;;;;2.77;1.50;;;12.40;99.90;;;;;;7388142;19;20135;-79
2022/11/14 12:49:46;;;;;;;2.17;1.30;;;12.60;99.90;;;;;;7394786;19;20151;-79
2022/11/14 12:52:43;;;;;;;1.80;1.33;;;12.70;99.90;;;;;;7401938;19;20864;-80
2022/11/14 12:55:27;;;;;;;2.23;1.20;;;12.80;99.90;;;;;;7393135;19;20146;-80
2022/11/14 12:58:17;;;;;;;1.50;1.30;;;12.90;99.90;;;;;;7383936;19;20646;-79
2022/11/14 13:00:43;;;;;;;2.45;1.30;;;13.00;99.90;;;;;;7401288;19;20138;-81
2022/11/14 13:03:23;;;;;;;3.53;1.70;;;13.10;99.90;;;;;;7396097;19;20179;-78
2022/11/14 13:06:07;;;;;;;2.00;1.20;;;13.10;99.90;;;;;;7393361;19;20131;-78
2022/11/14 13:08:48;;;;;;;1.63;1.35;;;13.10;99.90;;;;;;7394727;19;20131;-80